Forside
METAR-TAF:

METAR-TAF

Lufthavne :

Oxford, England

Breddekreds: 51-50-13N, længdekreds: 1-19-12W, højde: 82 m

Aktuelle vejr

Denne rapport blev lavet for 34 minutter siden, kl. 17:20 UTC
Vind 14 kt fra vestsydvest
Temperatur 7°C
Fugtighed 76%
Tryk 1011 hPa
Sigt 10 km eller mere
Nogle få skyer i en højde af 4000 ft, Cumulonimbus.
byger i nærheden

METAR: EGTK 171720Z 25014KT 9999 VCSH FEW040CB 07/03 Q1011

Tid: 17:54 (17:54 UTC)

Vejrudsigter

Denne rapport blev lavet for 1 time og 0 minutter siden, kl. 16:54 UTC
Foreløbig gælder fra 17 på 18 UTC til 17 på 23 UTC
Vind 15 kt fra vestsydvest
Sigt 10 km eller mere
Spredte skyer i en højde af 2500 ft
Sandsynlighed 30% :
Midlertidig
fra 17 på 18 UTC til 17 på 20 UTC
Vind 18 kt fra vest med vindstød på up til 28 kt
Sigt: 6000 m
regnbyger

TAF: EGTK 171654Z 1718/1723 25015KT 9999 SCT025 PROB30 TEMPO 1718/1720 26018G28KT 6000 SHRA

Vejrobservationer og prognoser fra mere end 4000 lufthavne (METAR og TAF).

De gule og røde prikker repræsenterer de meteorologiske stationer.

Flyt musen over at se navnet på stationen.

Så klik over at se vejr observationer og prognoser.

At skifte det kort: Klik på de grønne knapper med et sort kors for at zoome ind; på den grønne knap med en bindestreg for at zoome ud; eller på de grønne pile for tilstødende kort.


METAR-TAF: